Progress Software Price to Book Ratio 2010-2024 | PRGS

Historical price to book ratio values for Progress Software (PRGS) over the last 10 years. The current price to book ratio for Progress Software as of May 21, 2024 is 4.80.

Please refer to the Stock Price Adjustment Guide for more information on our historical prices.

Progress Software Price/Book Ratio Historical Data
Date Stock Price Book Value per Share Price to Book Ratio
2024-05-22 51.32 4.86
2024-02-29 53.36 $10.57 5.05
2023-11-30 53.68 $10.50 5.11
2023-08-31 60.44 $10.22 5.92
2023-05-31 59.44 $9.66 6.15
2023-02-28 56.74 $9.55 5.94
2022-11-30 52.51 $9.21 5.70
2022-08-31 47.24 $8.53 5.54
2022-05-31 47.25 $8.56 5.52
2022-02-28 42.95 $8.42 5.10
2021-11-30 47.03 $9.34 5.03
2021-08-31 45.03 $9.05 4.98
2021-05-31 42.94 $8.36 5.14
2021-02-28 40.83 $8.01 5.10
2020-11-30 38.33 $7.82 4.90
2020-08-31 36.06 $8.16 4.42
2020-05-31 38.28 $7.55 5.07
2020-02-29 35.19 $7.33 4.80
2019-11-30 39.47 $7.33 5.38
2019-08-31 35.36 $7.43 4.76
2019-05-31 38.18 $7.05 5.41
2019-02-28 34.15 $6.90 4.95
2018-11-30 32.51 $7.18 4.53
2018-08-31 37.68 $6.77 5.57
2018-05-31 34.75 $6.79 5.11
2018-02-28 42.84 $7.51 5.71
2017-11-30 37.67 $7.95 4.74
2017-08-31 30.50 $8.19 3.72
2017-05-31 26.42 $8.14 3.25
2017-02-28 25.84 $8.00 3.23
2016-11-30 26.53 $8.38 3.17
2016-08-31 25.92 $10.18 2.55
2016-05-31 23.52 $10.05 2.34
2016-02-29 22.53 $10.36 2.17
2015-11-30 21.43 $10.33 2.07
2015-08-31 24.20 $10.55 2.29
2015-05-31 23.52 $10.46 2.25
2015-02-28 24.42 $10.64 2.30
2014-11-30 23.04 $10.72 2.15
2014-08-31 20.69 $10.46 1.98
2014-05-31 19.40 $10.24 1.90
2013-11-30 23.53 $9.97 2.36
2013-08-31 21.85 $9.93 2.20
2013-05-31 21.00 $10.03 2.09
2013-02-28 20.12 $10.55 1.91
2012-11-30 17.97 $10.71 1.68
2014-02-28 22.28 $10.22 2.18
2012-08-31 17.18 $10.68 1.61
2012-05-31 17.17 $10.42 1.65
2012-02-29 20.74 $10.42 1.99
2011-11-30 18.20 $10.12 1.80
2011-08-31 18.60 $10.44 1.78
2011-05-31 24.18 $10.73 2.25
2011-02-28 26.23 $10.67 2.46
2010-11-30 22.94 $10.35 2.22
2010-08-31 15.91 $9.81 1.62
2010-05-31 19.02 $9.67 1.97
2010-02-28 16.69 $9.14 1.83
2009-11-30 14.34 $6.08 2.36
2009-08-31 13.27 $8.71 1.52
2009-05-31 13.35 $8.45 1.58
2009-02-28 9.49 $8.14 1.17
Sector Industry Market Cap Revenue
Computer and Technology Computer Software $2.218B $0.694B
Progress offers the leading platform for developing and deploying mission-critical business applications. Progress empowers enterprises and ISVs to build and deliver cognitive-first applications that harness big data to derive business insights and competitive advantage. Progress offers leading technologies for easily building powerful user interfaces across any type of device, a reliable, scalable and secure backend platform to deploy modern applications, leading data connectivity to all sources, and award-winning predictive analytics that brings the power of machine learning to any organization.
Stock Name Country Market Cap PE Ratio
Microsoft (MSFT) United States $3188.757B 37.15
Oracle (ORCL) United States $342.546B 27.88
Salesforce (CRM) United States $274.680B 45.92
Adobe (ADBE) United States $215.869B 36.09
Intuit (INTU) United States $186.990B 62.71
Synopsys (SNPS) United States $87.158B 62.88
Cadence Design Systems (CDNS) United States $78.946B 75.15
Dassault Systemes SA (DASTY) France $55.970B 36.36
Autodesk (ADSK) United States $47.465B 46.38
MicroStrategy (MSTR) United States $29.363B 0.00
ANSYS (ANSS) United States $28.529B 52.79
PTC (PTC) United States $21.866B 57.99
SS&C Technologies Holdings (SSNC) United States $15.663B 14.83
Manhattan Associates (MANH) United States $13.894B 73.75
Open Text (OTEX) Canada $8.440B 8.50
Descartes Systems Group (DSGX) Canada $8.404B 73.56
Trend Micro (TMICY) Japan $6.677B 48.36
Pegasystems (PEGA) United States $5.252B 46.44
CommVault Systems (CVLT) United States $4.805B 78.51
Blackbaud (BLKB) United States $4.126B 35.52
ACI Worldwide (ACIW) United States $3.904B 18.56
Verint Systems (VRNT) United States $1.979B 18.45
Sapiens (SPNS) Israel $1.902B 25.94
BlackBerry (BB) Canada $1.747B 0.00
PROS Holdings (PRO) United States $1.480B 0.00
Simulations Plus (SLP) United States $0.987B 72.66
Rand Worldwide (RWWI) United States $0.647B 0.00
Magic Software Enterprises (MGIC) Israel $0.532B 11.28
American Software (AMSWA) United States $0.352B 29.44
Canaan (CAN) China $0.251B 0.00
OptimizeRx (OPRX) United States $0.236B 0.00
Rigetti Computing (RGTI) United States $0.175B 0.00
Icad Inc (ICAD) United States $0.043B 0.00
Neonode (NEON) Sweden $0.037B 0.00
NetSol Technologies (NTWK) United States $0.031B 0.00
Smith Micro Software (SMSI) United States $0.026B 0.00
Wetouch Technology (WETH) $0.023B 0.00
Hanryu Holdings (HRYU) South Korea $0.022B 0.00
GSE Systems (GVP) United States $0.011B 0.00
SAP SE (SAP) Germany $0.000B 49.80